< Typhoon 202223 2022 Season
Typhoon 202224 (YAMANEKO)
General InformationDetailed Track InformationTrack Information on Google MapsForecast History on Google MapsAccess Analytics MapList of All Images || NewsDisaster Info.JMA Disaster Info. XMLWeblogTrackbackTyphoon FrontTwiphoonTyphoon Now!Typhoon ImaginationResourceGoogle EarthGE AnimationAtom FeedGeoJSON
Detalied Best Track Wind (Time Zone = UTC)
Year Month Day Hour Lat. Long. Wind (kt) Gust (kt) Direc. of Major Storm Axis Radius of Major Storm Axis (nm) Radius of Minor Storm Axis (nm) Direc. of Major Gale Axis Radius of Major Gale Axis (nm) Radius of Minor Gale Axis (nm) Image
2022 11 11 18 20.8 168.4 30 45 - - - - - - Image
2022 11 11 21 21.0 167.3 30 45 - - - - - - Image
2022 11 12 00 20.8 166.3 30 45 - - - - - - Image
2022 11 12 03 20.5 165.7 30 45 - - - - - - Image
2022 11 12 06 20.4 165.5 30 45 - - - - - - Image
2022 11 12 09 20.8 165.5 30 45 - - - - - - Image
2022 11 12 12 20.9 165.4 35 50 - - - E 120 60 Image
2022 11 12 15 21.1 165.3 35 50 - - - E 120 60 Image
2022 11 12 18 21.6 165.3 35 50 - - - E 120 60 Image
2022 11 12 21 21.8 165.9 35 50 - - - E 120 60 Image
2022 11 13 00 21.8 166.1 35 50 - - - NE 180 90 Image
2022 11 13 03 21.9 165.9 35 50 - - - NE 180 90 Image
2022 11 13 06 22.2 166.0 35 50 - - - NE 180 90 Image
2022 11 13 09 22.3 165.8 35 50 - - - NE 180 90 Image
2022 11 13 12 22.4 165.8 35 50 - - - NE 180 90 Image
2022 11 13 15 22.4 165.8 35 50 - - - NE 180 90 Image
2022 11 13 18 22.6 165.9 35 50 - - - NE 180 90 Image
2022 11 13 21 23.2 165.9 35 50 - - - NE 180 90 Image
2022 11 14 00 23.8 165.6 35 50 - - - E 210 120 Image
2022 11 14 03 24.2 165.6 35 50 - - - E 210 120 Image
2022 11 14 06 25.0 166.0 0 0 - - - - - - Image
Japan Meteorological Agency Best Track Data | Correction Date : 2022-11-14
< Typhoon 202223 2022 Season

Help